Time;durP1;ratioP1;P1;durP2;ratioP2;P2;SDS_P1;SDS_P2;PMS_P1;PMS_P2;Temp;Humidity;BMP_temperature;BMP_pressure;BME280_temperature;BME280_humidity;BME280_pressure;Samples;Min_cycle;Max_cycle;Signal;HPM_P1;HPM_P2
2022/03/06 00:01:31;;;;;;;83.07;35.98;;;;;;;-4.03;71.12;102282.22;1714724;80;21641;-84
2022/03/06 00:03:58;;;;;;;84.40;35.20;;;;;;;-4.06;71.11;102284.83;1714502;80;21128;-84
2022/03/06 00:06:24;;;;;;;80.07;35.45;;;;;;;-4.08;71.17;102283.38;1714895;80;21630;-83
2022/03/06 00:08:51;;;;;;;81.10;36.28;;;;;;;-4.08;71.19;102281.18;1714837;82;21755;-84
2022/03/06 00:11:18;;;;;;;79.75;36.13;;;;;;;-4.08;71.21;102280.80;1714523;81;21073;-85
2022/03/06 00:13:44;;;;;;;77.60;35.20;;;;;;;-4.10;71.24;102279.34;1695189;80;21092;-85
2022/03/06 00:16:11;;;;;;;75.87;35.52;;;;;;;-4.12;71.25;102273.50;1714906;81;21583;-85
2022/03/06 00:18:38;;;;;;;82.80;34.85;;;;;;;-4.10;71.35;102280.63;1714861;80;21061;-85
2022/03/06 00:21:09;;;;;;;75.52;33.40;;;;;;;-4.10;71.34;102279.34;1715065;80;21811;-85
2022/03/06 00:23:38;;;;;;;81.15;35.00;;;;;;;-4.12;71.29;102276.98;1714624;81;21565;-85
2022/03/06 00:26:04;;;;;;;85.07;34.92;;;;;;;-4.14;71.31;102277.19;1714893;81;21268;-86
2022/03/06 00:28:31;;;;;;;82.08;36.55;;;;;;;-4.14;71.42;102277.19;1714727;80;21161;-86
2022/03/06 00:30:57;;;;;;;84.58;38.58;;;;;;;-4.13;71.42;102272.95;1714799;81;21999;-86
2022/03/06 00:33:24;;;;;;;78.80;34.78;;;;;;;-4.13;71.39;102271.66;1718839;81;21760;-83
2022/03/06 00:35:51;;;;;;;78.70;36.30;;;;;;;-4.17;71.38;102265.28;1695206;80;21057;-84
2022/03/06 00:38:19;;;;;;;80.60;36.83;;;;;;;-4.19;71.41;102265.48;1714231;81;21524;-84
2022/03/06 00:40:45;;;;;;;77.22;35.85;;;;;;;-4.20;71.44;102266.25;1714867;80;21074;-84
2022/03/06 00:43:12;;;;;;;75.65;34.27;;;;;;;-4.22;71.45;102266.46;1714953;80;21077;-84
2022/03/06 00:45:39;;;;;;;79.40;35.92;;;;;;;-4.23;71.48;102261.15;1714839;80;21756;-85
2022/03/06 00:48:06;;;;;;;72.82;33.73;;;;;;;-4.27;71.50;102265.05;1714978;80;21563;-84
2022/03/06 00:50:34;;;;;;;79.62;34.30;;;;;;;-4.30;71.55;102264.70;1714253;80;21064;-85
2022/03/06 00:53:01;;;;;;;75.17;33.00;;;;;;;-4.29;71.62;102265.25;1714214;82;21519;-83
2022/03/06 00:55:27;;;;;;;72.85;33.00;;;;;;;-4.29;71.66;102269.11;1714772;80;21559;-84
2022/03/06 00:57:54;;;;;;;75.17;33.53;;;;;;;-4.30;71.67;102269.48;1714664;80;21761;-84
2022/03/06 01:00:21;;;;;;;75.80;32.13;;;;;;;-4.32;71.68;102267.13;1714555;80;21042;-84
2022/03/06 01:02:47;;;;;;;73.50;31.55;;;;;;;-4.32;71.79;102264.56;1735693;80;21119;-85
2022/03/06 01:05:14;;;;;;;75.17;33.70;;;;;;;-4.32;71.81;102268.41;1758411;80;21343;-85
2022/03/06 01:07:41;;;;;;;64.42;29.18;;;;;;;-4.33;71.83;102265.29;1756559;80;21063;-84
2022/03/06 01:10:09;;;;;;;75.35;31.87;;;;;;;-4.33;71.87;102268.24;1753835;80;22602;-83
2022/03/06 01:12:35;;;;;;;67.40;30.72;;;;;;;-4.35;71.90;102262.03;1753508;80;21136;-83
2022/03/06 01:15:02;;;;;;;63.45;29.92;;;;;;;-4.37;71.93;102259.66;1753677;80;21047;-84
2022/03/06 01:17:29;;;;;;;70.57;30.90;;;;;;;-4.59;71.95;102226.85;1748450;80;21042;-84
2022/03/06 01:19:55;;;;;;;68.05;31.45;;;;;;;-4.40;71.99;102266.65;1750744;80;21082;-84
2022/03/06 01:22:22;;;;;;;67.40;30.48;;;;;;;-4.41;71.99;102267.76;1753868;80;23081;-83
2022/03/06 01:24:49;;;;;;;69.62;31.57;;;;;;;-4.42;72.04;102265.57;1753965;80;21040;-84
2022/03/06 01:27:15;;;;;;;67.55;32.10;;;;;;;-4.41;72.10;102261.33;1753889;80;21066;-83
2022/03/06 01:29:42;;;;;;;74.85;32.10;;;;;;;-4.42;72.07;102263.38;1754105;80;22369;-84
2022/03/06 01:32:08;;;;;;;68.35;31.73;;;;;;;-4.45;72.07;102263.03;1754169;80;21071;-84
2022/03/06 01:34:35;;;;;;;67.27;31.27;;;;;;;-4.46;72.10;102265.08;1754170;80;22548;-85
2022/03/06 01:37:02;;;;;;;71.40;31.15;;;;;;;-4.47;72.10;102260.67;1745416;80;21113;-85
2022/03/06 01:39:28;;;;;;;64.07;28.95;;;;;;;-4.50;72.08;102259.59;1724560;81;21051;-85
2022/03/06 01:41:55;;;;;;;60.50;29.40;;;;;;;-4.51;72.09;102262.90;1754254;80;21100;-85
2022/03/06 01:44:22;;;;;;;66.92;28.75;;;;;;;-4.53;72.11;102259.25;1754504;80;21079;-85
2022/03/06 01:46:48;;;;;;;66.35;30.02;;;;;;;-4.56;72.10;102258.94;1754213;80;21239;-84
2022/03/06 01:49:15;;;;;;;60.58;27.93;;;;;;;-4.57;72.17;102263.52;1754208;80;21577;-85
2022/03/06 01:51:43;;;;;;;59.60;27.15;;;;;;;-4.58;72.18;102259.14;1754377;80;21076;-85
2022/03/06 01:54:09;;;;;;;60.48;29.37;;;;;;;-4.58;72.21;102262.06;1752648;80;21603;-85
2022/03/06 01:56:36;;;;;;;58.55;28.10;;;;;;;-4.59;72.23;102249.59;1747515;81;21028;-85
2022/03/06 01:59:03;;;;;;;60.25;28.12;;;;;;;-4.59;72.23;102252.16;1754230;80;21776;-84
2022/03/06 02:01:30;;;;;;;64.87;28.05;;;;;;;-4.59;72.25;102253.45;1754087;81;21060;-84
2022/03/06 02:03:57;;;;;;;63.60;26.75;;;;;;;-4.60;72.23;102249.42;1719004;81;22266;-84
2022/03/06 02:06:25;;;;;;;58.50;27.48;;;;;;;-4.60;72.23;102250.70;1714355;80;38415;-85
2022/03/06 02:08:52;;;;;;;57.25;26.75;;;;;;;-4.61;72.19;102250.19;1714916;83;21089;-85
2022/03/06 02:11:19;;;;;;;58.42;26.20;;;;;;;-4.64;72.21;102252.02;1714339;80;22478;-85
2022/03/06 02:13:45;;;;;;;58.10;25.88;;;;;;;-4.64;72.23;102251.13;1714762;80;21061;-85
2022/03/06 02:16:12;;;;;;;55.33;24.75;;;;;;;-4.66;72.24;102247.47;1714801;81;21033;-85
2022/03/06 02:18:39;;;;;;;55.83;26.17;;;;;;;-4.69;72.28;102250.63;1714736;81;21063;-85
2022/03/06 02:21:11;;;;;;;56.77;25.17;;;;;;;-4.71;72.36;102254.31;1714431;83;21071;-85
2022/03/06 02:23:39;;;;;;;52.23;25.60;;;;;;;-4.71;72.38;102257.23;1714626;81;22447;-84
2022/03/06 02:26:06;;;;;;;50.95;22.75;;;;;;;-4.73;72.44;102245.53;1714453;81;21094;-84
2022/03/06 02:28:34;;;;;;;55.08;26.68;;;;;;;-4.74;72.44;102247.92;1714577;81;21089;-84
2022/03/06 02:31:01;;;;;;;53.52;24.57;;;;;;;-4.74;72.50;102247.92;1714389;82;21030;-84
2022/03/06 02:33:27;;;;;;;55.43;25.45;;;;;;;-4.75;72.55;102244.45;1714481;81;21065;-84
2022/03/06 02:35:54;;;;;;;47.58;23.95;;;;;;;-4.74;72.58;102248.83;1714464;80;21236;-84
2022/03/06 02:38:21;;;;;;;56.20;26.20;;;;;;;-4.75;72.58;102234.17;1714545;81;21034;-85
2022/03/06 02:40:48;;;;;;;52.53;23.40;;;;;;;-4.77;72.59;102234.34;1714461;80;21143;-85
2022/03/06 02:43:15;;;;;;;59.35;24.72;;;;;;;-4.76;72.63;102236.56;1714880;82;21092;-84
2022/03/06 02:45:42;;;;;;;52.27;24.20;;;;;;;-4.78;72.59;102235.48;1714930;80;21082;-86
2022/03/06 02:48:08;;;;;;;52.33;23.22;;;;;;;-4.79;72.60;102235.84;1717506;81;21745;-85
2022/03/06 02:50:37;;;;;;;54.27;25.17;;;;;;;-4.79;72.64;102233.65;1716335;80;21025;-84
2022/03/06 02:53:07;;;;;;;51.02;22.45;;;;;;;-4.81;72.60;102236.42;1718252;82;21073;-84
2022/03/06 02:55:34;;;;;;;58.28;24.25;;;;;;;-4.83;72.62;102229.83;1714643;80;21303;-84
2022/03/06 02:58:01;;;;;;;50.52;23.00;;;;;;;-4.81;72.67;102227.44;1714492;80;21065;-84
2022/03/06 03:00:28;;;;;;;51.08;24.00;;;;;;;-4.82;72.69;102226.87;1714750;81;21751;-84
2022/03/06 03:02:54;;;;;;;46.63;23.35;;;;;;;-4.84;72.70;102219.38;1727020;80;21064;-85
2022/03/06 03:05:21;;;;;;;56.23;25.27;;;;;;;-4.85;72.69;102225.28;1724623;81;21046;-86
2022/03/06 03:07:49;;;;;;;51.37;24.10;;;;;;;-4.85;72.73;102221.42;1753555;80;21216;-86
2022/03/06 03:10:26;;;;;;;52.67;24.72;;;;;;;-4.85;72.75;102223.99;1754154;80;21581;-86
2022/03/06 03:12:50;;;;;;;58.95;24.25;;;;;;;-4.85;72.77;102223.99;1752105;80;21984;-86
2022/03/06 03:15:17;;;;;;;55.43;24.45;;;;;;;-4.99;72.76;102195.14;1753999;80;21017;-86
2022/03/06 03:17:44;;;;;;;53.40;25.12;;;;;;;-4.87;72.79;102215.21;1753902;80;21540;-86
2022/03/06 03:20:11;;;;;;;58.13;25.65;;;;;;;-4.89;72.80;102212.47;1754031;80;21099;-85
2022/03/06 03:22:37;;;;;;;57.53;25.55;;;;;;;-4.89;72.81;102215.03;1753956;81;21084;-86
2022/03/06 03:25:05;;;;;;;52.05;25.70;;;;;;;-4.90;72.83;102206.43;1754158;80;21745;-85
2022/03/06 03:27:32;;;;;;;54.13;25.48;;;;;;;-4.90;72.81;102206.77;1753458;80;21155;-85
2022/03/06 03:29:58;;;;;;;59.05;26.95;;;;;;;-4.89;72.88;102206.95;1753382;80;21747;-85
2022/03/06 03:32:25;;;;;;;59.30;27.42;;;;;;;-4.88;72.90;102201.44;1753058;80;21216;-85
2022/03/06 03:34:52;;;;;;;52.67;24.92;;;;;;;-4.88;72.87;102207.85;1753724;80;21067;-85
2022/03/06 03:37:18;;;;;;;61.48;25.97;;;;;;;-4.87;72.89;102203.27;1753902;80;22561;-85
2022/03/06 03:39:45;;;;;;;63.00;26.90;;;;;;;-4.88;72.91;102196.30;1753900;80;21769;-86
2022/03/06 03:42:12;;;;;;;59.27;27.35;;;;;;;-4.87;72.92;102202.37;1726327;81;21026;-87
2022/03/06 03:44:38;;;;;;;58.08;27.07;;;;;;;-4.90;72.92;102202.92;1754003;80;21135;-86
2022/03/06 03:47:05;;;;;;;61.30;27.75;;;;;;;-4.91;72.97;102206.25;1753970;81;21079;-85
2022/03/06 03:49:32;;;;;;;53.25;24.47;;;;;;;-4.90;73.05;102206.43;1753865;81;21744;-84
2022/03/06 03:51:58;;;;;;;60.73;25.05;;;;;;;-4.91;73.01;102207.16;1753676;81;21085;-85
2022/03/06 03:54:25;;;;;;;53.15;25.08;;;;;;;-4.92;73.01;102206.98;1754025;80;21095;-86
2022/03/06 03:56:51;;;;;;;55.33;25.10;;;;;;;-4.91;73.05;102211.39;1754082;81;22255;-86
2022/03/06 03:59:18;;;;;;;56.15;25.25;;;;;;;-4.90;73.10;102213.20;1745804;81;21036;-87
2022/03/06 04:01:45;;;;;;;59.95;25.32;;;;;;;-4.91;73.09;102206.25;1754585;80;22418;-85
2022/03/06 04:04:11;;;;;;;48.20;24.15;;;;;;;-4.93;73.10;102205.17;1754004;80;21043;-84
2022/03/06 04:06:38;;;;;;;53.60;23.87;;;;;;;-4.93;73.13;102211.59;1754071;80;21020;-85
2022/03/06 04:09:05;;;;;;;56.28;24.12;;;;;;;-4.95;73.16;102210.14;1753660;80;21632;-85
2022/03/06 04:11:32;;;;;;;58.28;23.85;;;;;;;-4.94;73.21;102213.61;1754045;80;21024;-85
2022/03/06 04:13:58;;;;;;;45.48;22.32;;;;;;;-4.96;73.21;102213.44;1753897;80;21734;-85
2022/03/06 04:16:25;;;;;;;54.75;22.87;;;;;;;-4.97;73.20;102212.91;1753933;80;21328;-85
2022/03/06 04:18:51;;;;;;;49.38;22.52;;;;;;;-4.98;73.24;102217.49;1754081;80;21028;-85
2022/03/06 04:21:18;;;;;;;47.73;22.55;;;;;;;-4.98;73.26;102216.20;1754023;80;21065;-86
2022/03/06 04:23:46;;;;;;;48.80;22.07;;;;;;;-4.99;73.30;102210.55;1751732;81;21299;-85
2022/03/06 04:26:12;;;;;;;48.08;20.77;;;;;;;-4.99;73.29;102209.27;1753750;80;22477;-84
2022/03/06 04:28:39;;;;;;;44.88;21.77;;;;;;;-5.01;73.33;102200.48;1752938;80;21577;-84
2022/03/06 04:31:06;;;;;;;39.73;19.37;;;;;;;-5.02;73.32;102197.36;1751552;80;21073;-84
2022/03/06 04:33:32;;;;;;;42.30;20.60;;;;;;;-5.02;73.39;102198.64;1751047;81;21145;-84
2022/03/06 04:35:59;;;;;;;41.68;20.15;;;;;;;-5.03;73.42;102196.84;1751601;80;21516;-84
2022/03/06 04:38:26;;;;;;;42.93;20.57;;;;;;;-5.03;73.44;102196.84;1752587;80;22548;-84
2022/03/06 04:40:54;;;;;;;47.30;22.13;;;;;;;-5.01;73.46;102199.20;1751816;80;21626;-84
2022/03/06 04:43:24;;;;;;;47.38;21.00;;;;;;;-5.01;73.49;102196.63;1752108;81;21042;-86
2022/03/06 04:45:49;;;;;;;51.98;21.65;;;;;;;-5.02;73.46;102190.94;1750897;80;21082;-84
2022/03/06 04:48:16;;;;;;;41.73;20.20;;;;;;;-5.01;73.49;102186.70;1753429;80;21620;-84
2022/03/06 04:50:43;;;;;;;45.38;20.50;;;;;;;-5.01;73.54;102182.86;1749636;81;21816;-85
2022/03/06 04:53:09;;;;;;;47.88;20.95;;;;;;;-5.02;73.54;102184.52;1753931;81;21001;-85
2022/03/06 04:55:36;;;;;;;47.27;20.37;;;;;;;-5.01;73.53;102190.22;1752541;80;21061;-86
2022/03/06 04:58:03;;;;;;;42.27;19.23;;;;;;;-5.01;73.53;102190.22;1748623;81;21539;-85
2022/03/06 05:00:29;;;;;;;41.98;19.10;;;;;;;-4.99;73.54;102192.92;1752695;80;21057;-85
2022/03/06 05:02:56;;;;;;;45.38;20.45;;;;;;;-5.00;73.54;102185.98;1748485;80;21783;-85
2022/03/06 05:05:23;;;;;;;39.25;17.95;;;;;;;-5.02;73.55;102185.80;1712242;82;21053;-85
2022/03/06 05:07:50;;;;;;;40.60;18.67;;;;;;;-5.00;73.62;102183.41;1715105;82;20995;-85
2022/03/06 05:10:17;;;;;;;40.60;18.92;;;;;;;-5.01;73.56;102179.94;1715474;80;21274;-86
2022/03/06 05:12:44;;;;;;;40.73;18.67;;;;;;;-5.00;73.56;102178.28;1715331;80;21078;-85
2022/03/06 05:15:12;;;;;;;41.45;17.70;;;;;;;-5.00;73.58;102172.77;1715158;80;21745;-85
2022/03/06 05:17:40;;;;;;;36.93;16.52;;;;;;;-5.01;73.61;102175.16;1715080;82;21036;-85
2022/03/06 05:20:09;;;;;;;33.05;16.62;;;;;;;-5.01;73.63;102174.80;1715099;82;22203;-84
2022/03/06 05:22:35;;;;;;;43.65;18.95;;;;;;;-4.99;73.64;102178.80;1715144;82;21165;-86
2022/03/06 05:25:05;;;;;;;35.98;16.57;;;;;;;-4.99;73.67;102178.80;1714490;79;21063;-85
2022/03/06 05:27:32;;;;;;;41.73;18.00;;;;;;;-4.98;73.69;102180.26;1715069;80;21706;-85
2022/03/06 05:29:58;;;;;;;44.45;19.20;;;;;;;-4.97;73.66;102174.39;1714837;80;21072;-84
2022/03/06 05:32:25;;;;;;;44.55;18.30;;;;;;;-4.94;73.69;102182.80;1715140;82;21110;-85
2022/03/06 05:34:52;;;;;;;36.10;17.02;;;;;;;-4.90;73.73;102186.23;1714687;82;21074;-87
2022/03/06 05:37:19;;;;;;;46.05;17.40;;;;;;;-4.87;73.72;102181.44;1714851;83;21552;-87
2022/03/06 05:39:45;;;;;;;45.63;18.80;;;;;;;-4.83;73.72;102178.45;1714664;82;21695;-86
2022/03/06 05:42:14;;;;;;;33.50;16.67;;;;;;;-4.80;73.66;102180.47;1714795;82;21066;-83
2022/03/06 05:44:41;;;;;;;38.58;16.25;;;;;;;-4.76;73.68;102186.09;1714689;83;21070;-84
2022/03/06 05:47:08;;;;;;;34.53;16.75;;;;;;;-4.71;73.65;102180.16;1714668;80;21046;-82
2022/03/06 05:49:34;;;;;;;43.38;17.65;;;;;;;-4.67;73.61;102181.41;1710920;80;21095;-83
2022/03/06 05:52:02;;;;;;;36.70;16.97;;;;;;;-4.62;73.61;102176.41;1714705;82;22566;-84
2022/03/06 05:54:33;;;;;;;43.17;18.32;;;;;;;-4.58;73.59;102174.34;1700051;82;21170;-83
2022/03/06 05:57:00;;;;;;;41.48;17.02;;;;;;;-4.52;73.57;102172.81;1714294;81;20999;-83
2022/03/06 05:59:27;;;;;;;41.40;17.98;;;;;;;-4.50;73.50;102167.08;1713913;80;21067;-82
2022/03/06 06:01:53;;;;;;;36.13;16.73;;;;;;;-4.44;73.43;102168.50;1713644;80;21074;-77
2022/03/06 06:04:23;;;;;;;34.45;16.85;;;;;;;-4.41;73.38;102161.09;1719280;81;21749;-88
2022/03/06 06:06:50;;;;;;;35.05;16.70;;;;;;;-4.38;73.36;102158.48;1716483;82;21068;-80
2022/03/06 06:09:16;;;;;;;36.98;16.27;;;;;;;-4.33;73.35;102157.70;1719728;83;21058;-80
2022/03/06 06:11:43;;;;;;;35.98;16.45;;;;;;;-4.28;73.32;102148.80;1719591;82;21090;-81
2022/03/06 06:14:10;;;;;;;41.60;17.52;;;;;;;-4.24;73.25;102153.55;1716527;81;21026;-83
2022/03/06 06:16:37;;;;;;;37.50;16.90;;;;;;;-4.20;73.19;102146.70;1710758;81;22447;-80
2022/03/06 06:19:03;;;;;;;37.88;17.45;;;;;;;-4.14;73.16;102149.00;1710921;81;21054;-80
2022/03/06 06:21:33;;;;;;;35.85;17.98;;;;;;;-4.10;73.14;102148.58;1710991;81;21045;-80
2022/03/06 06:23:59;;;;;;;36.48;17.32;;;;;;;-4.02;73.13;102157.09;1698256;81;21137;-80
2022/03/06 06:26:26;;;;;;;34.55;16.93;;;;;;;-3.95;73.14;102151.47;1711676;81;21058;-80
2022/03/06 06:28:56;;;;;;;38.38;17.62;;;;;;;-3.85;73.12;102143.44;1719260;82;21761;-80
2022/03/06 06:31:24;;;;;;;38.90;17.90;;;;;;;-3.77;73.17;102142.22;1720313;82;21066;-80
2022/03/06 06:33:51;;;;;;;41.48;17.87;;;;;;;-3.67;73.14;102139.31;1718752;82;21121;-80
2022/03/06 06:36:17;;;;;;;34.30;16.37;;;;;;;-3.59;73.12;102133.29;1720500;82;21075;-80
2022/03/06 06:38:44;;;;;;;37.58;17.20;;;;;;;-3.49;73.08;102145.09;1720698;83;21078;-80
2022/03/06 06:41:10;;;;;;;34.73;18.37;;;;;;;-3.38;73.04;102143.59;1718981;82;21763;-80
2022/03/06 06:43:37;;;;;;;34.08;16.65;;;;;;;-3.27;72.97;102144.71;1718689;83;21071;-80
2022/03/06 06:46:04;;;;;;;29.57;16.17;;;;;;;-3.20;72.83;102148.45;1720855;83;21501;-80
2022/03/06 06:48:30;;;;;;;34.27;16.25;;;;;;;-3.14;72.75;102148.69;1720228;82;21113;-80
2022/03/06 06:50:57;;;;;;;33.55;15.20;;;;;;;-3.04;72.75;102145.41;1718942;83;21069;-80
2022/03/06 06:53:23;;;;;;;29.48;14.55;;;;;;;-2.96;72.70;102143.22;1720152;83;21765;-80
2022/03/06 06:55:50;;;;;;;27.95;14.13;;;;;;;-2.84;72.67;102151.66;1718998;82;21344;-80
2022/03/06 06:58:17;;;;;;;30.70;15.08;;;;;;;-2.74;72.60;102147.59;1720313;82;21132;-79
2022/03/06 07:00:43;;;;;;;35.38;16.50;;;;;;;-2.62;72.51;102145.72;1719391;83;21509;-80
2022/03/06 07:03:10;;;;;;;31.30;16.05;;;;;;;-2.52;72.47;102147.53;1720210;83;21062;-80
2022/03/06 07:05:37;;;;;;;27.82;15.08;;;;;;;-2.42;72.39;102151.55;1718007;81;21809;-85
2022/03/06 07:08:04;;;;;;;32.30;15.28;;;;;;;-2.32;72.32;102149.53;1714273;83;20999;-77
2022/03/06 07:10:31;;;;;;;31.07;15.03;;;;;;;-2.21;72.34;102149.82;1714056;83;21094;-81
2022/03/06 07:12:58;;;;;;;28.05;14.25;;;;;;;-2.05;72.29;102154.80;1714466;80;21078;-80
2022/03/06 07:15:29;;;;;;;29.05;15.70;;;;;;;-1.92;72.27;102154.33;1713877;80;21082;-79
2022/03/06 07:17:57;;;;;;;32.35;15.68;;;;;;;-1.76;72.21;102156.36;1745730;80;22618;-84
2022/03/06 07:20:24;;;;;;;25.92;14.15;;;;;;;-1.61;72.14;102153.05;1714176;80;21612;-81
2022/03/06 07:22:50;;;;;;;26.05;13.30;;;;;;;-1.45;72.07;102156.71;1714327;80;21054;-84
2022/03/06 07:25:17;;;;;;;29.90;13.75;;;;;;;-1.27;71.97;102164.03;1714356;80;21194;-84
2022/03/06 07:27:44;;;;;;;28.00;14.03;;;;;;;-1.06;71.88;102165.53;1714913;80;21042;-85
2022/03/06 07:30:11;;;;;;;23.90;13.72;;;;;;;-0.83;71.89;102159.53;1714762;80;21745;-84
2022/03/06 07:32:48;;;;;;;27.93;14.30;;;;;;;-0.51;72.01;102161.61;1714851;80;21089;-84
2022/03/06 07:35:16;;;;;;;25.12;13.80;;;;;;;-0.16;71.93;102162.64;1712661;83;21085;-90
2022/03/06 07:37:43;;;;;;;25.37;13.70;;;;;;;0.14;71.53;102159.31;1713317;80;21090;-82
2022/03/06 07:40:14;;;;;;;24.30;12.00;;;;;;;0.38;71.14;102159.30;1713398;82;21058;-81
2022/03/06 07:43:13;;;;;;;21.37;10.88;;;;;;;0.56;70.88;102158.72;1706556;83;21785;-94
2022/03/06 07:45:40;;;;;;;17.40;8.88;;;;;;;0.77;70.47;102160.08;1723922;80;79436;-89
2022/03/06 07:48:08;;;;;;;18.50;9.10;;;;;;;0.96;69.89;102157.00;1766430;79;21091;-91
2022/03/06 07:50:35;;;;;;;21.07;10.55;;;;;;;1.10;69.57;102166.34;1766850;81;21083;-87
2022/03/06 07:53:02;;;;;;;24.67;11.55;;;;;;;1.24;69.41;102164.92;1768342;81;21074;-92
2022/03/06 07:55:29;;;;;;;20.97;10.80;;;;;;;1.39;69.25;102166.25;1771006;81;21738;-91
2022/03/06 07:57:55;;;;;;;17.52;9.93;;;;;;;1.50;68.97;102170.66;1770848;81;21030;-93
2022/03/06 08:00:22;;;;;;;18.57;8.35;;;;;;;1.61;68.63;102165.44;1771024;81;21027;-91
2022/03/06 08:02:49;;;;;;;14.80;7.37;;;;;;;1.68;68.18;102172.97;1769993;81;21042;-92
2022/03/06 08:05:16;;;;;;;13.15;7.20;;;;;;;1.77;67.92;102167.25;1739406;82;21566;-91
2022/03/06 08:07:43;;;;;;;14.80;8.58;;;;;;;1.92;67.97;102171.50;1738335;82;21734;-89
2022/03/06 08:10:10;;;;;;;19.73;9.50;;;;;;;2.12;67.71;102167.56;1767564;80;21018;-88
2022/03/06 08:12:36;;;;;;;18.82;10.55;;;;;;;2.29;67.53;102166.70;1715547;82;21079;-86
2022/03/06 08:15:04;;;;;;;23.35;12.40;;;;;;;2.47;67.26;102169.48;1735204;80;21644;-89
2022/03/06 08:17:30;;;;;;;20.30;11.95;;;;;;;2.63;67.16;102165.14;1705484;82;21191;-92
2022/03/06 08:19:57;;;;;;;8.35;4.85;;;;;;;2.78;67.03;102159.32;1760435;81;21748;-88
2022/03/06 08:22:29;;;;;;;4.28;2.30;;;;;;;2.91;66.24;102169.94;1770321;81;21027;-90
2022/03/06 08:24:56;;;;;;;17.10;9.20;;;;;;;2.80;64.98;102166.48;1771334;81;21183;-88
2022/03/06 08:27:23;;;;;;;3.67;2.25;;;;;;;2.71;64.81;102169.65;1769523;79;21596;-90
2022/03/06 08:29:50;;;;;;;11.03;6.92;;;;;;;2.72;64.61;102176.64;1768715;79;21021;-89
2022/03/06 08:32:16;;;;;;;6.00;3.05;;;;;;;2.73;64.26;102165.47;1713976;82;22584;-90
2022/03/06 08:34:43;;;;;;;3.62;2.20;;;;;;;2.77;64.31;102166.63;1768382;81;21019;-88
2022/03/06 08:37:09;;;;;;;2.95;1.70;;;;;;;2.83;64.04;102161.91;1734372;82;21109;-87
2022/03/06 08:39:36;;;;;;;3.98;2.27;;;;;;;2.92;63.79;102155.72;1735008;81;21499;-87
2022/03/06 08:42:04;;;;;;;6.12;1.95;;;;;;;3.07;63.77;102159.02;1736665;82;21091;-93
2022/03/06 08:44:30;;;;;;;4.55;2.47;;;;;;;3.22;63.42;102156.30;1711087;83;21892;-93
2022/03/06 08:46:57;;;;;;;8.28;4.83;;;;;;;3.32;63.01;102150.09;1674471;82;21052;-89
2022/03/06 08:49:24;;;;;;;4.65;2.70;;;;;;;3.31;62.70;102139.20;1690970;84;21336;-93
2022/03/06 08:51:50;;;;;;;4.83;2.10;;;;;;;3.38;62.63;102142.78;1691427;84;21058;-92
2022/03/06 08:54:21;;;;;;;3.55;1.92;;;;;;;3.46;62.55;102144.26;1679431;84;20992;-94
2022/03/06 08:56:49;;;;;;;3.80;2.58;;;;;;;3.63;62.36;102140.73;1667415;84;21146;-88
2022/03/06 08:59:19;;;;;;;7.10;3.98;;;;;;;3.71;62.06;102139.59;1691101;84;21544;-83
2022/03/06 09:01:47;;;;;;;7.12;3.37;;;;;;;3.82;62.00;102141.71;1685534;84;21042;-84
2022/03/06 09:04:18;;;;;;;6.40;3.05;;;;;;;3.94;61.83;102140.41;1690185;84;21164;-85
2022/03/06 09:06:51;;;;;;;;;;;;;;;4.07;61.71;102136.60;1647527;86;21118;-87
2022/03/06 09:09:19;;;;;;;3.75;2.20;;;;;;;4.22;61.28;102130.30;1644737;86;22805;-91
2022/03/06 09:11:46;;;;;;;5.58;2.52;;;;;;;4.30;60.98;102138.30;1644356;87;21124;-89
2022/03/06 09:14:13;;;;;;;3.72;2.33;;;;;;;4.35;60.88;102131.70;1641143;87;21106;-86
2022/03/06 09:16:39;;;;;;;4.42;2.60;;;;;;;4.42;60.08;102139.17;1635573;87;21090;-85
2022/03/06 09:19:24;;;;;;;4.65;2.58;;;;;;;4.20;59.62;102138.01;1636465;87;21641;-94
2022/03/06 09:21:57;;;;;;;5.87;2.70;;;;;;;4.09;59.72;102131.11;1638028;87;21860;-96
2022/03/06 09:24:22;;;;;;;5.37;3.50;;;;;;;4.14;59.70;102138.87;1636979;86;21227;-89
2022/03/06 09:26:48;;;;;;;6.60;3.02;;;;;;;4.15;59.40;102145.91;1674364;85;21072;-91
2022/03/06 09:29:15;;;;;;;5.33;2.90;;;;;;;4.04;58.82;102145.52;1683485;85;21128;-90
2022/03/06 09:31:43;;;;;;;5.60;2.52;;;;;;;3.82;58.70;102144.31;1721114;82;21029;-90
2022/03/06 09:34:11;;;;;;;3.58;2.77;;;;;;;3.73;59.08;102142.33;1741960;82;21754;-89
2022/03/06 09:36:43;;;;;;;3.77;2.33;;;;;;;3.90;59.13;102143.17;1734014;82;21126;-91
2022/03/06 09:39:09;;;;;;;2.47;1.60;;;;;;;4.05;59.20;102143.41;1713006;82;21018;-89
2022/03/06 09:41:39;;;;;;;3.72;1.98;;;;;;;4.10;58.43;102140.75;1734662;82;21532;-88
2022/03/06 09:44:11;;;;;;;2.92;1.60;;;;;;;4.09;58.09;102147.67;1738031;82;21122;-89
2022/03/06 09:46:38;;;;;;;3.58;1.77;;;;;;;4.00;57.91;102143.08;1765158;80;22605;-87
2022/03/06 09:49:06;;;;;;;5.55;2.20;;;;;;;3.90;57.98;102140.57;1778052;80;21123;-89
2022/03/06 09:51:41;;;;;;;4.67;2.25;;;;;;;3.88;58.05;102136.95;1778469;80;21022;-89
2022/03/06 09:54:10;;;;;;;4.78;2.70;;;;;;;4.01;58.07;102138.77;1778107;80;21188;-89
2022/03/06 09:56:37;;;;;;;5.45;2.90;;;;;;;4.14;57.92;102137.97;1782366;79;21531;-88
2022/03/06 09:59:05;;;;;;;5.85;2.90;;;;;;;4.22;57.72;102137.75;1781271;79;21582;-89
2022/03/06 10:01:32;;;;;;;7.22;3.35;;;;;;;4.21;57.51;102140.23;1780973;80;21011;-87
2022/03/06 10:04:00;;;;;;;9.33;4.37;;;;;;;4.25;57.72;102134.05;1782314;80;21027;-89
2022/03/06 10:06:27;;;;;;;18.17;11.50;;;;;;;4.41;57.84;102133.84;1744886;80;21802;-87
2022/03/06 10:09:07;;;;;;;8.95;4.30;;;;;;;4.54;57.87;102132.63;1782334;79;21049;-87
2022/03/06 10:11:34;;;;;;;18.52;10.82;;;;;;;4.68;57.62;102134.93;1782004;80;22594;-87
2022/03/06 10:14:01;;;;;;;6.50;3.35;;;;;;;4.75;57.47;102131.03;1781943;80;21058;-87
2022/03/06 10:16:27;;;;;;;5.17;2.92;;;;;;;4.86;57.43;102123.19;1781293;79;21634;-87
2022/03/06 10:18:56;;;;;;;5.75;3.37;;;;;;;4.99;57.12;102121.42;1772633;80;21164;-87
2022/03/06 10:21:28;;;;;;;8.25;5.35;;;;;;;5.06;56.80;102125.86;1771050;80;21059;-87
2022/03/06 10:24:05;;;;;;;5.53;3.40;;;;;;;5.13;56.88;102119.78;1771779;81;22634;-89
2022/03/06 10:27:09;;;;;;;5.85;3.33;;;;;;;5.22;56.59;102128.25;1713564;81;21540;-89
2022/03/06 10:29:36;;;;;;;10.13;5.03;;;;;;;5.23;56.39;102127.02;1647434;86;21055;-89
2022/03/06 10:32:07;;;;;;;5.60;3.08;;;;;;;5.18;56.01;102123.22;1644951;85;21163;-89
2022/03/06 10:34:40;;;;;;;5.87;3.55;;;;;;;5.15;55.87;102128.63;1618944;88;21096;-90
2022/03/06 10:37:11;;;;;;;13.55;5.92;;;;;;;5.14;56.07;102126.38;1633172;85;21768;-90
2022/03/06 10:39:46;;;;;;;11.57;5.67;;;;;;;5.14;55.93;102128.10;1600305;88;21145;-87
2022/03/06 10:42:13;;;;;;;21.90;10.15;;;;;;;5.14;55.69;102130.71;1631118;87;21185;-86
2022/03/06 10:44:46;;;;;;;11.08;5.95;;;;;;;5.15;55.76;102128.21;1609371;87;21086;-90
2022/03/06 10:47:13;;;;;;;7.20;3.62;;;;;;;5.30;55.84;102122.24;1614050;86;21138;-87
2022/03/06 10:49:41;;;;;;;75.03;28.02;;;;;;;5.36;55.57;102097.44;1611824;88;22608;-87
2022/03/06 10:52:17;;;;;;;24.15;9.95;;;;;;;5.57;55.59;102105.80;1611736;88;21125;-86
2022/03/06 10:54:55;;;;;;;8.50;4.83;;;;;;;5.72;55.49;102097.19;1604970;88;21130;-89
2022/03/06 10:57:23;;;;;;;117.25;46.90;;;;;;;5.83;55.15;102087.05;1611431;86;21111;-90
2022/03/06 10:59:50;;;;;;;38.53;16.82;;;;;;;5.96;54.99;102092.71;1653375;81;21121;-87
2022/03/06 11:02:19;;;;;;;62.48;24.95;;;;;;;6.01;54.71;102086.08;1756368;81;21801;-87
2022/03/06 11:04:57;;;;;;;93.03;37.10;;;;;;;6.01;54.44;102093.92;1695569;81;21109;-90
2022/03/06 11:07:32;;;;;;;12.30;5.62;;;;;;;5.95;54.20;102086.93;1724341;82;21017;-90
2022/03/06 11:10:08;;;;;;;7.35;4.45;;;;;;;6.03;54.34;102085.78;1746206;82;21100;-87
2022/03/06 11:12:39;;;;;;;13.80;5.55;;;;;;;6.14;54.29;102091.30;1755070;81;21094;-87
2022/03/06 11:15:12;;;;;;;72.00;24.40;;;;;;;6.30;54.20;102084.42;1719312;81;21677;-87
2022/03/06 11:17:57;;;;;;;78.30;23.75;;;;;;;6.29;53.79;102082.60;1597098;88;21174;-90